Time;durP1;ratioP1;P1;durP2;ratioP2;P2;SDS_P1;SDS_P2;PMS_P1;PMS_P2;Temp;Humidity;BMP_temperature;BMP_pressure;BME280_temperature;BME280_humidity;BME280_pressure;Samples;Min_cycle;Max_cycle;Signal;HPM_P1;HPM_P2
2022/10/13 00:01:19;;;;;;;3.60;1.48;;;11.90;99.90;;;;;;5050380;28;20044;-75
2022/10/13 00:03:46;;;;;;;0.08;0.08;;;11.80;99.90;;;;;;5048580;28;20178;-75
2022/10/13 00:06:13;;;;;;;0.30;0.30;;;11.80;99.90;;;;;;5026287;28;20050;-75
2022/10/13 00:08:40;;;;;;;0.40;0.40;;;11.80;99.90;;;;;;5044200;28;20052;-75
2022/10/13 00:11:14;;;;;;;0.22;0.22;;;11.80;99.90;;;;;;5049909;28;20063;-75
2022/10/13 00:13:42;;;;;;;0.60;0.60;;;11.80;99.90;;;;;;5010938;28;20567;-75
2022/10/13 00:16:08;;;;;;;0.20;0.20;;;11.80;99.90;;;;;;5046146;28;20492;-75
2022/10/13 00:18:34;;;;;;;0.85;0.75;;;11.80;99.90;;;;;;5040346;28;20121;-75
2022/10/13 00:21:00;;;;;;;0.75;0.75;;;11.80;99.90;;;;;;5027474;28;20478;-75
2022/10/13 00:23:25;;;;;;;0.30;0.30;;;11.90;99.90;;;;;;5024435;28;20037;-75
2022/10/13 00:25:51;;;;;;;0.47;0.47;;;11.80;99.90;;;;;;5030790;28;20037;-75
2022/10/13 00:28:18;;;;;;;3.03;0.60;;;11.80;99.90;;;;;;5021841;28;20041;-75
2022/10/13 00:30:45;;;;;;;0.47;0.47;;;11.80;99.90;;;;;;5028238;28;20052;-74
2022/10/13 00:33:12;;;;;;;0.30;0.30;;;11.80;99.90;;;;;;5030311;28;20041;-75
2022/10/13 00:35:43;;;;;;;0.60;0.60;;;11.80;99.90;;;;;;5037130;28;20033;-75
2022/10/13 00:38:09;;;;;;;0.70;0.57;;;11.80;99.90;;;;;;5028997;28;20095;-75
2022/10/13 00:40:52;;;;;;;0.40;0.40;;;11.80;99.90;;;;;;5034707;28;20043;-75
2022/10/13 00:43:19;;;;;;;0.20;0.20;;;11.90;99.90;;;;;;5028308;28;20072;-75
2022/10/13 00:45:48;;;;;;;0.90;0.90;;;11.90;99.90;;;;;;5030053;28;20536;-75
2022/10/13 00:48:16;;;;;;;0.73;0.73;;;11.90;99.90;;;;;;5021840;28;20446;-75
2022/10/13 00:50:41;;;;;;;2.63;2.00;;;11.90;99.90;;;;;;5021085;28;20389;-75
2022/10/13 00:53:10;;;;;;;0.45;0.45;;;11.80;99.90;;;;;;5029204;28;20042;-75
2022/10/13 00:55:38;;;;;;;0.57;0.57;;;11.80;99.90;;;;;;5039472;28;20128;-75
2022/10/13 00:58:06;;;;;;;0.65;0.65;;;11.80;99.90;;;;;;5040290;28;20045;-75
2022/10/13 01:00:33;;;;;;;0.15;0.15;;;11.80;99.90;;;;;;5039752;28;20548;-75
2022/10/13 01:02:59;;;;;;;0.50;0.50;;;11.80;99.90;;;;;;5011101;28;20042;-75
2022/10/13 01:05:25;;;;;;;0.40;0.40;;;11.80;99.90;;;;;;5019717;28;20053;-75
2022/10/13 01:07:52;;;;;;;1.95;1.55;;;11.90;99.90;;;;;;5032380;28;20119;-75
2022/10/13 01:10:33;;;;;;;0.20;0.20;;;11.90;99.90;;;;;;5046651;28;20139;-74
2022/10/13 01:13:20;;;;;;;0.52;0.52;;;11.90;99.90;;;;;;5031308;28;20049;-75
2022/10/13 01:16:00;;;;;;;0.28;0.22;;;11.90;99.90;;;;;;5036143;28;20049;-75
2022/10/13 01:18:26;;;;;;;0.40;0.40;;;11.80;99.90;;;;;;5044381;28;20068;-75
2022/10/13 01:21:14;;;;;;;0.20;0.20;;;11.80;99.90;;;;;;5040109;28;20138;-75
2022/10/13 01:24:11;;;;;;;0.28;0.28;;;11.90;99.90;;;;;;5047031;28;20041;-75
2022/10/13 01:26:36;;;;;;;2.97;1.38;;;11.80;99.90;;;;;;5052844;28;20496;-75
2022/10/13 01:29:11;;;;;;;0.40;0.40;;;11.90;99.90;;;;;;5050612;28;20309;-75
2022/10/13 01:32:00;;;;;;;0.55;0.43;;;11.90;99.90;;;;;;5053933;28;20055;-75
2022/10/13 01:34:34;;;;;;;0.95;0.95;;;11.80;99.90;;;;;;5033155;28;20049;-75
2022/10/13 01:37:04;;;;;;;0.10;0.10;;;11.80;99.90;;;;;;5027242;28;20401;-74
2022/10/13 01:39:51;;;;;;;0.20;0.20;;;11.90;99.90;;;;;;5049232;28;20048;-75
2022/10/13 01:42:23;;;;;;;1.08;0.65;;;11.90;99.90;;;;;;5028745;28;20073;-75
2022/10/13 01:44:53;;;;;;;1.95;1.05;;;11.90;99.90;;;;;;5053106;28;20045;-75
2022/10/13 01:47:20;;;;;;;0.40;0.40;;;11.80;99.90;;;;;;5035257;28;20053;-75
2022/10/13 01:49:49;;;;;;;0.30;0.30;;;11.90;99.90;;;;;;5022570;28;20047;-75
2022/10/13 01:52:17;;;;;;;0.80;0.80;;;11.80;99.90;;;;;;5049306;28;20057;-75
2022/10/13 01:54:50;;;;;;;0.52;0.52;;;11.80;99.90;;;;;;5033227;28;20124;-75
2022/10/13 01:57:35;;;;;;;6.30;2.30;;;11.80;99.90;;;;;;5032052;28;20049;-75
2022/10/13 02:00:05;;;;;;;2.38;0.82;;;11.70;99.90;;;;;;5032504;28;20103;-75
2022/10/13 02:02:38;;;;;;;1.02;0.90;;;11.80;99.90;;;;;;5024506;28;20048;-75
2022/10/13 02:05:22;;;;;;;;;;;11.70;99.90;;;;;;5046615;28;20088;-75
2022/10/13 02:08:32;;;;;;;0.98;0.75;;;11.70;99.90;;;;;;5048641;28;19929;-75
2022/10/13 02:11:17;;;;;;;0.70;0.70;;;11.70;99.90;;;;;;5018147;28;20074;-75
2022/10/13 02:13:57;;;;;;;0.10;0.10;;;11.70;99.90;;;;;;5013611;28;20068;-75
2022/10/13 02:16:25;;;;;;;0.30;0.30;;;11.70;99.90;;;;;;5019205;28;20471;-75
2022/10/13 02:18:52;;;;;;;0.30;0.30;;;11.70;99.90;;;;;;5040894;28;20095;-75
2022/10/13 02:21:18;;;;;;;2.28;0.65;;;11.70;99.90;;;;;;5032713;28;20052;-75
2022/10/13 02:23:44;;;;;;;0.38;0.38;;;11.70;99.90;;;;;;5025601;28;20050;-75
2022/10/13 02:26:10;;;;;;;0.30;0.30;;;11.70;99.90;;;;;;5025364;28;20049;-74
2022/10/13 02:28:36;;;;;;;0.35;0.35;;;11.70;99.90;;;;;;5032062;28;20041;-75
2022/10/13 02:31:04;;;;;;;0.30;0.30;;;11.70;99.90;;;;;;5014314;28;20057;-75
2022/10/13 02:33:29;;;;;;;0.20;0.20;;;11.70;99.90;;;;;;5028413;28;20396;-75
2022/10/13 02:35:55;;;;;;;1.17;1.08;;;11.60;99.90;;;;;;5041567;28;20120;-75
2022/10/13 02:38:21;;;;;;;0.65;0.65;;;11.70;99.90;;;;;;5037803;28;20045;-74
2022/10/13 02:40:46;;;;;;;0.40;0.40;;;11.70;99.90;;;;;;5034307;28;20037;-75
2022/10/13 02:43:12;;;;;;;0.50;0.17;;;11.60;99.90;;;;;;5032277;28;20042;-74
2022/10/13 02:45:37;;;;;;;1.13;0.65;;;11.70;99.90;;;;;;5032326;28;20052;-74
2022/10/13 02:48:03;;;;;;;0.85;0.85;;;11.70;99.90;;;;;;5036958;28;20448;-74
2022/10/13 02:50:29;;;;;;;0.30;0.30;;;11.70;99.90;;;;;;5052477;28;20045;-74
2022/10/13 02:52:54;;;;;;;0.10;0.10;;;11.70;99.90;;;;;;5046313;28;20055;-74
2022/10/13 02:55:20;;;;;;;0.17;0.17;;;11.70;99.90;;;;;;5046152;28;20040;-74
2022/10/13 02:57:45;;;;;;;0.90;0.73;;;11.70;99.90;;;;;;5052625;28;20044;-74
2022/10/13 03:00:12;;;;;;;2.78;1.27;;;11.70;99.90;;;;;;5051543;28;20139;-74
2022/10/13 03:02:37;;;;;;;0.30;0.30;;;11.70;99.90;;;;;;5033897;28;20045;-74
2022/10/13 03:05:03;;;;;;;0.40;0.40;;;11.70;99.90;;;;;;5052071;28;20469;-74
2022/10/13 03:07:29;;;;;;;0.45;0.45;;;11.70;99.90;;;;;;5051207;28;20089;-74
2022/10/13 03:09:54;;;;;;;0.15;0.15;;;11.70;99.90;;;;;;5042274;28;20049;-74
2022/10/13 03:12:20;;;;;;;0.25;0.25;;;11.70;99.90;;;;;;5050915;28;20045;-74
2022/10/13 03:14:46;;;;;;;0.20;0.20;;;11.60;99.90;;;;;;5029481;28;20124;-74
2022/10/13 03:17:11;;;;;;;0.20;0.20;;;11.70;99.90;;;;;;5031610;28;20041;-74
2022/10/13 03:19:37;;;;;;;0.10;0.10;;;11.70;99.90;;;;;;5022697;28;20042;-74
2022/10/13 03:22:02;;;;;;;0.68;0.68;;;11.70;99.90;;;;;;5048287;28;20115;-74
2022/10/13 03:24:28;;;;;;;0.47;0.47;;;11.70;99.90;;;;;;5032330;28;20049;-74
2022/10/13 03:26:53;;;;;;;0.30;0.30;;;11.70;99.90;;;;;;5031616;28;20042;-74
2022/10/13 03:29:19;;;;;;;0.52;0.52;;;11.70;99.90;;;;;;5024520;28;20140;-74
2022/10/13 03:31:45;;;;;;;0.22;0.22;;;11.70;99.90;;;;;;5041659;28;20499;-74
2022/10/13 03:34:11;;;;;;;0.10;0.10;;;11.70;99.90;;;;;;5050421;28;20574;-74
2022/10/13 03:36:38;;;;;;;0.65;0.65;;;11.70;99.90;;;;;;5050602;28;20037;-74
2022/10/13 03:39:04;;;;;;;0.35;0.35;;;11.70;99.90;;;;;;5033049;28;20055;-74
2022/10/13 03:41:29;;;;;;;1.55;1.17;;;11.70;99.90;;;;;;5028136;28;20038;-74
2022/10/13 03:43:55;;;;;;;0.17;0.17;;;11.70;99.90;;;;;;5045255;28;20040;-74
2022/10/13 03:46:23;;;;;;;0.75;0.75;;;11.70;99.90;;;;;;5051161;28;20095;-74
2022/10/13 03:48:49;;;;;;;2.30;0.95;;;11.80;99.90;;;;;;5048877;28;20378;-74
2022/10/13 03:51:17;;;;;;;0.20;0.20;;;11.70;99.90;;;;;;5049360;28;20044;-74
2022/10/13 03:53:44;;;;;;;0.63;0.63;;;11.80;99.90;;;;;;5043339;28;20041;-74
2022/10/13 03:56:24;;;;;;;1.33;0.90;;;11.80;99.90;;;;;;5049904;28;20041;-74
2022/10/13 03:58:53;;;;;;;0.10;0.10;;;11.80;99.90;;;;;;5026646;28;20084;-74
2022/10/13 04:01:21;;;;;;;0.30;0.30;;;11.80;99.90;;;;;;5030662;28;20484;-74
2022/10/13 04:03:46;;;;;;;0.10;0.10;;;11.80;99.90;;;;;;5029649;28;20046;-74
2022/10/13 04:06:12;;;;;;;0.82;0.60;;;11.80;99.90;;;;;;5026812;28;20406;-74
2022/10/13 04:08:37;;;;;;;0.30;0.22;;;11.80;99.90;;;;;;5050566;28;20036;-74
2022/10/13 04:11:06;;;;;;;0.10;0.10;;;11.80;99.90;;;;;;5026112;28;20053;-74
2022/10/13 04:13:33;;;;;;;0.65;0.65;;;11.80;99.90;;;;;;5035585;28;20429;-74
2022/10/13 04:16:04;;;;;;;0.10;0.10;;;11.80;99.90;;;;;;5020976;28;20497;-74
2022/10/13 04:18:29;;;;;;;0.10;0.10;;;11.80;99.90;;;;;;5026749;28;20414;-74
2022/10/13 04:20:55;;;;;;;0.20;0.20;;;11.80;99.90;;;;;;5016981;28;20049;-74
2022/10/13 04:23:21;;;;;;;0.77;0.77;;;11.80;99.90;;;;;;5020449;28;20142;-74
2022/10/13 04:25:46;;;;;;;2.90;0.77;;;11.80;99.90;;;;;;5026281;28;20057;-74
2022/10/13 04:28:12;;;;;;;0.98;0.98;;;11.80;99.90;;;;;;5049848;28;20572;-74
2022/10/13 04:30:38;;;;;;;0.68;0.68;;;11.80;99.90;;;;;;5024552;28;20036;-74
2022/10/13 04:33:04;;;;;;;0.10;0.10;;;11.80;99.90;;;;;;5028841;28;20042;-74
2022/10/13 04:35:30;;;;;;;1.30;1.23;;;11.80;99.90;;;;;;5030978;28;20037;-75
2022/10/13 04:37:58;;;;;;;0.57;0.57;;;11.80;99.90;;;;;;5033755;28;20370;-75
2022/10/13 04:40:25;;;;;;;0.10;0.10;;;11.80;99.90;;;;;;5039093;28;20060;-75
2022/10/13 04:42:51;;;;;;;0.08;0.08;;;11.80;99.90;;;;;;5030704;28;20057;-75
2022/10/13 04:45:17;;;;;;;1.08;0.70;;;11.80;99.90;;;;;;5028145;28;20049;-75
2022/10/13 04:47:43;;;;;;;0.25;0.25;;;11.80;99.90;;;;;;5032418;28;20107;-76
2022/10/13 04:50:09;;;;;;;0.75;0.75;;;11.80;99.90;;;;;;5030322;28;20131;-76
2022/10/13 04:52:35;;;;;;;0.95;0.73;;;11.80;99.90;;;;;;5028144;28;20456;-76
2022/10/13 04:55:01;;;;;;;1.08;1.08;;;11.70;99.90;;;;;;5023090;28;20501;-76
2022/10/13 04:57:27;;;;;;;0.47;0.47;;;11.70;99.90;;;;;;5025446;28;20088;-79
2022/10/13 04:59:53;;;;;;;0.10;0.10;;;11.70;99.90;;;;;;5017047;28;20133;-79
2022/10/13 05:02:18;;;;;;;1.10;0.63;;;11.70;99.90;;;;;;5032280;28;20049;-79
2022/10/13 05:04:44;;;;;;;0.90;0.75;;;11.70;99.90;;;;;;5029638;28;21773;-78
2022/10/13 05:07:10;;;;;;;0.30;0.30;;;11.70;99.90;;;;;;5032346;28;20750;-79
2022/10/13 05:09:35;;;;;;;0.32;0.32;;;11.70;99.90;;;;;;5018376;28;20053;-79
2022/10/13 05:12:01;;;;;;;0.43;0.43;;;11.70;99.90;;;;;;5008534;28;20050;-79
2022/10/13 05:14:26;;;;;;;1.02;1.02;;;11.70;99.90;;;;;;5031896;28;20041;-78
2022/10/13 05:16:52;;;;;;;0.55;0.55;;;11.70;99.90;;;;;;5049326;28;20055;-78
2022/10/13 05:19:19;;;;;;;1.85;1.48;;;11.70;99.90;;;;;;5028793;28;20250;-79
2022/10/13 05:21:44;;;;;;;0.63;0.63;;;11.70;99.90;;;;;;5017178;28;20042;-79
2022/10/13 05:24:12;;;;;;;0.10;0.10;;;11.70;99.90;;;;;;5028052;28;20045;-79
2022/10/13 05:26:38;;;;;;;0.55;0.32;;;11.70;99.90;;;;;;5027234;28;20512;-80
2022/10/13 05:29:04;;;;;;;0.38;0.38;;;11.70;99.90;;;;;;5029125;28;20050;-80
2022/10/13 05:31:31;;;;;;;0.20;0.20;;;11.70;99.90;;;;;;5029389;28;20124;-80
2022/10/13 05:33:57;;;;;;;0.30;0.30;;;11.70;99.90;;;;;;5023350;28;20121;-79
2022/10/13 05:36:28;;;;;;;0.20;0.20;;;11.70;99.90;;;;;;5032891;28;20089;-79
2022/10/13 05:38:56;;;;;;;0.17;0.17;;;11.70;99.90;;;;;;5035263;28;20038;-78
2022/10/13 05:41:24;;;;;;;1.52;0.55;;;11.70;99.90;;;;;;5028931;28;20081;-78
2022/10/13 05:43:52;;;;;;;0.20;0.20;;;11.70;99.90;;;;;;5030119;28;20508;-78
2022/10/13 05:46:18;;;;;;;0.10;0.10;;;11.70;99.90;;;;;;5014403;28;20398;-78
2022/10/13 05:48:43;;;;;;;0.47;0.47;;;11.70;99.90;;;;;;5024126;28;20038;-77
2022/10/13 05:51:14;;;;;;;0.03;0.03;;;11.70;99.90;;;;;;5029488;28;20500;-76
2022/10/13 05:53:44;;;;;;;0.20;0.20;;;11.70;99.90;;;;;;5027305;28;20049;-76
2022/10/13 05:56:16;;;;;;;0.55;0.55;;;11.80;99.90;;;;;;5028418;28;20076;-75
2022/10/13 05:58:49;;;;;;;1.85;0.65;;;11.70;99.90;;;;;;5024380;28;20505;-75
2022/10/13 06:01:19;;;;;;;0.52;0.52;;;11.80;99.90;;;;;;5029701;28;20049;-74
2022/10/13 06:03:46;;;;;;;0.17;0.17;;;11.80;99.90;;;;;;5039608;28;20491;-75
2022/10/13 06:06:12;;;;;;;0.98;0.70;;;11.80;99.90;;;;;;5014477;28;20513;-74
2022/10/13 06:08:37;;;;;;;0.30;0.30;;;11.80;99.90;;;;;;5026696;28;20049;-75
2022/10/13 06:11:04;;;;;;;1.65;0.38;;;11.80;99.90;;;;;;5044274;28;20049;-74
2022/10/13 06:13:29;;;;;;;0.15;0.15;;;11.80;99.90;;;;;;5029544;28;20034;-74
2022/10/13 06:15:55;;;;;;;0.30;0.30;;;11.80;99.90;;;;;;5027135;28;20378;-75
2022/10/13 06:18:21;;;;;;;0.40;0.40;;;11.90;99.90;;;;;;5031338;28;20370;-74
2022/10/13 06:20:46;;;;;;;3.72;0.73;;;11.90;99.90;;;;;;5032822;28;20099;-75
2022/10/13 06:23:12;;;;;;;0.40;0.40;;;11.90;99.90;;;;;;5030361;28;20076;-75
2022/10/13 06:25:45;;;;;;;0.25;0.25;;;11.90;99.90;;;;;;5040086;28;20049;-75
2022/10/13 06:28:11;;;;;;;0.10;0.10;;;11.90;99.90;;;;;;5052794;28;20041;-75
2022/10/13 06:30:37;;;;;;;0.50;0.50;;;11.90;99.90;;;;;;5033305;28;20053;-75
2022/10/13 06:33:03;;;;;;;0.10;0.10;;;11.90;99.90;;;;;;5030859;28;20041;-75
2022/10/13 06:35:29;;;;;;;0.10;0.10;;;11.90;99.90;;;;;;5027689;28;20394;-75
2022/10/13 06:37:56;;;;;;;0.57;0.57;;;11.90;99.90;;;;;;5020260;28;20038;-75
2022/10/13 06:40:21;;;;;;;0.28;0.28;;;11.90;99.90;;;;;;5031446;28;20057;-76
2022/10/13 06:42:50;;;;;;;0.22;0.22;;;12.00;99.90;;;;;;5040519;28;20049;-75
2022/10/13 06:45:18;;;;;;;0.20;0.20;;;12.00;99.90;;;;;;5042679;28;20060;-75
2022/10/13 06:47:44;;;;;;;0.65;0.65;;;12.00;99.90;;;;;;5039942;28;20048;-75
2022/10/13 06:50:09;;;;;;;0.80;0.80;;;12.00;99.90;;;;;;5032131;28;20041;-75
2022/10/13 06:52:35;;;;;;;0.50;0.50;;;12.00;99.90;;;;;;5025052;28;20478;-75
2022/10/13 06:55:00;;;;;;;0.20;0.20;;;12.10;99.90;;;;;;5044677;28;20042;-75
2022/10/13 06:57:26;;;;;;;0.25;0.25;;;12.10;99.90;;;;;;5030977;28;20081;-79
2022/10/13 06:59:52;;;;;;;0.35;0.35;;;12.10;99.90;;;;;;5052309;28;20041;-79
2022/10/13 07:02:17;;;;;;;0.00;0.00;;;12.20;99.90;;;;;;5030294;28;20072;-78
2022/10/13 07:04:43;;;;;;;0.15;0.15;;;12.20;99.90;;;;;;5020297;28;20054;-79
2022/10/13 07:07:08;;;;;;;1.05;1.00;;;12.20;99.90;;;;;;5042718;28;21728;-79
2022/10/13 07:09:34;;;;;;;0.10;0.10;;;12.30;99.90;;;;;;5030454;28;20052;-79
2022/10/13 07:11:59;;;;;;;4.97;0.90;;;12.30;99.90;;;;;;5028623;28;20049;-79
2022/10/13 07:14:25;;;;;;;1.55;0.85;;;12.30;99.90;;;;;;5025504;28;20038;-79
2022/10/13 07:16:51;;;;;;;0.10;0.10;;;12.30;99.90;;;;;;5044201;28;20041;-79
2022/10/13 07:19:16;;;;;;;0.28;0.28;;;12.30;99.90;;;;;;5048055;28;20135;-79
2022/10/13 07:21:42;;;;;;;1.00;0.90;;;12.40;99.90;;;;;;5042352;28;20072;-78
2022/10/13 07:24:10;;;;;;;0.10;0.10;;;12.30;99.90;;;;;;5031460;28;20488;-78
2022/10/13 07:26:35;;;;;;;0.40;0.40;;;12.40;99.90;;;;;;5037311;28;20033;-78
2022/10/13 07:29:01;;;;;;;0.25;0.25;;;12.40;99.90;;;;;;5013106;28;20087;-78
2022/10/13 07:31:27;;;;;;;0.77;0.77;;;12.40;99.90;;;;;;5027749;28;20033;-79
2022/10/13 07:33:53;;;;;;;0.30;0.30;;;12.50;99.90;;;;;;5025736;28;20091;-79
2022/10/13 07:36:18;;;;;;;0.10;0.10;;;12.50;99.90;;;;;;5049499;28;20045;-79
2022/10/13 07:38:45;;;;;;;0.93;0.93;;;12.50;99.90;;;;;;5021314;28;20045;-79
2022/10/13 07:41:12;;;;;;;0.40;0.40;;;12.50;99.90;;;;;;5039094;28;20094;-79
2022/10/13 07:43:38;;;;;;;0.32;0.32;;;12.60;99.90;;;;;;5048157;28;20109;-79
2022/10/13 07:46:05;;;;;;;5.45;1.13;;;12.60;99.90;;;;;;5030971;28;20501;-79
2022/10/13 07:48:31;;;;;;;1.13;1.02;;;12.60;99.90;;;;;;5024133;28;20580;-79
2022/10/13 07:50:57;;;;;;;0.30;0.30;;;12.60;99.90;;;;;;5023674;28;20056;-80
2022/10/13 07:53:23;;;;;;;0.65;0.60;;;12.70;99.90;;;;;;5025019;28;20034;-79
2022/10/13 07:55:48;;;;;;;1.08;1.08;;;12.70;99.90;;;;;;5014582;28;20046;-79
2022/10/13 07:58:14;;;;;;;1.17;0.65;;;12.80;99.90;;;;;;5026620;28;20053;-81
2022/10/13 08:00:40;;;;;;;0.68;0.68;;;12.80;99.90;;;;;;5036377;28;20381;-81
2022/10/13 08:03:05;;;;;;;2.20;1.33;;;12.80;99.90;;;;;;5017741;28;20049;-79
2022/10/13 08:05:31;;;;;;;0.63;0.63;;;12.90;99.90;;;;;;5027285;28;20045;-80
2022/10/13 08:07:57;;;;;;;0.32;0.32;;;12.90;99.90;;;;;;5030682;28;20065;-80
2022/10/13 08:10:23;;;;;;;0.10;0.10;;;12.90;99.90;;;;;;5029094;28;20045;-80
2022/10/13 08:12:48;;;;;;;0.50;0.50;;;13.00;99.90;;;;;;5029193;28;20068;-80
2022/10/13 08:15:14;;;;;;;0.13;0.13;;;13.00;99.90;;;;;;5040694;28;20116;-79
2022/10/13 08:17:39;;;;;;;0.30;0.30;;;13.00;99.90;;;;;;5041339;28;20041;-80
2022/10/13 08:20:06;;;;;;;0.30;0.30;;;13.00;99.90;;;;;;5036474;28;20045;-79
2022/10/13 08:22:33;;;;;;;0.93;0.73;;;13.10;99.90;;;;;;5050704;28;20037;-80
2022/10/13 08:25:02;;;;;;;0.20;0.20;;;13.10;99.90;;;;;;5031685;28;20038;-78
2022/10/13 08:27:28;;;;;;;0.60;0.60;;;13.10;99.90;;;;;;5050354;28;20101;-79
2022/10/13 08:29:54;;;;;;;0.45;0.45;;;13.10;99.90;;;;;;5038746;28;20033;-80
2022/10/13 08:32:21;;;;;;;18.92;1.27;;;13.20;99.90;;;;;;5027503;28;20447;-80
2022/10/13 08:34:48;;;;;;;0.40;0.40;;;13.20;99.90;;;;;;5026259;28;20438;-80
2022/10/13 08:37:18;;;;;;;0.75;0.75;;;13.20;99.90;;;;;;5044293;28;20053;-80
2022/10/13 08:39:44;;;;;;;1.60;1.50;;;13.30;99.90;;;;;;5029437;28;20049;-80
2022/10/13 08:42:28;;;;;;;0.82;0.82;;;13.30;99.90;;;;;;5034285;28;20041;-80
2022/10/13 08:45:02;;;;;;;0.43;0.43;;;13.30;99.90;;;;;;5032136;28;20511;-80
2022/10/13 08:47:42;;;;;;;0.10;0.10;;;13.30;99.90;;;;;;5033877;28;20045;-80
2022/10/13 08:50:24;;;;;;;0.88;0.88;;;13.40;99.90;;;;;;5032846;28;20465;-80
2022/10/13 08:52:59;;;;;;;0.85;0.85;;;13.40;99.90;;;;;;5050752;28;20373;-80
2022/10/13 08:55:41;;;;;;;1.85;0.75;;;13.40;99.90;;;;;;5035246;28;20051;-80
2022/10/13 08:58:16;;;;;;;1.02;1.00;;;13.40;99.90;;;;;;5015989;28;20049;-77
2022/10/13 09:00:41;;;;;;;0.73;0.73;;;13.50;99.90;;;;;;5024387;28;20054;-77
2022/10/13 09:03:23;;;;;;;0.30;0.30;;;13.50;99.90;;;;;;5021777;28;20137;-79
2022/10/13 09:06:09;;;;;;;0.32;0.32;;;13.50;99.90;;;;;;5028103;28;20044;-76
2022/10/13 09:08:58;;;;;;;0.50;0.50;;;13.60;99.90;;;;;;5031459;28;20095;-77
2022/10/13 09:11:32;;;;;;;2.00;0.98;;;13.60;99.90;;;;;;5023267;28;20057;-78
2022/10/13 09:14:01;;;;;;;0.20;0.20;;;13.60;99.90;;;;;;5031860;28;20471;-80
2022/10/13 09:16:33;;;;;;;0.25;0.25;;;13.60;99.90;;;;;;5036493;28;20041;-78
2022/10/13 09:19:21;;;;;;;0.30;0.25;;;13.60;99.90;;;;;;5026381;28;20124;-77
2022/10/13 09:21:52;;;;;;;0.35;0.35;;;13.60;99.90;;;;;;5024256;28;20057;-82
2022/10/13 09:24:19;;;;;;;1.75;1.23;;;13.70;99.90;;;;;;5027987;28;20052;-79
2022/10/13 09:26:47;;;;;;;0.65;0.55;;;13.70;99.90;;;;;;5028660;28;20049;-79
2022/10/13 09:29:25;;;;;;;2.20;1.25;;;13.70;99.90;;;;;;5026481;28;20153;-79
2022/10/13 09:32:05;;;;;;;0.32;0.32;;;13.70;99.90;;;;;;5022146;28;20042;-77
2022/10/13 09:34:31;;;;;;;0.10;0.10;;;13.70;99.90;;;;;;5027451;28;20389;-76
2022/10/13 09:36:59;;;;;;;1.27;1.02;;;13.80;99.90;;;;;;5032230;28;20051;-77
2022/10/13 09:39:26;;;;;;;0.10;0.10;;;13.80;99.90;;;;;;5036101;28;20707;-76
2022/10/13 09:42:07;;;;;;;1.05;1.05;;;13.80;99.90;;;;;;5033579;28;20044;-77
2022/10/13 09:44:33;;;;;;;0.40;0.40;;;13.80;99.90;;;;;;5024728;28;20054;-76
2022/10/13 09:47:01;;;;;;;0.10;0.10;;;13.90;99.90;;;;;;5030382;28;20041;-78
2022/10/13 09:49:37;;;;;;;0.10;0.10;;;13.90;99.90;;;;;;5031482;28;20042;-76
2022/10/13 09:52:12;;;;;;;0.30;0.30;;;14.00;99.90;;;;;;5025053;28;20053;-76
2022/10/13 09:54:40;;;;;;;0.38;0.28;;;14.00;99.90;;;;;;5030531;28;20083;-77
2022/10/13 09:57:34;;;;;;;0.10;0.10;;;14.00;99.90;;;;;;5029626;28;20057;-76
2022/10/13 09:59:59;;;;;;;2.17;1.02;;;14.10;99.90;;;;;;5018612;28;20128;-74
2022/10/13 10:02:34;;;;;;;0.50;0.50;;;14.10;99.90;;;;;;5024473;28;20128;-77
2022/10/13 10:05:17;;;;;;;0.90;0.90;;;14.10;99.90;;;;;;5022014;28;20041;-77
2022/10/13 10:07:44;;;;;;;2.58;1.15;;;14.10;99.90;;;;;;5039235;28;20056;-76
2022/10/13 10:10:23;;;;;;;0.20;0.20;;;14.20;99.90;;;;;;5035491;28;20049;-76
2022/10/13 10:12:49;;;;;;;0.82;0.82;;;14.20;99.90;;;;;;5026497;28;20038;-77
2022/10/13 10:15:35;;;;;;;1.48;0.50;;;14.20;99.90;;;;;;5043488;28;20049;-76
2022/10/13 10:18:07;;;;;;;1.00;0.60;;;14.30;99.90;;;;;;5026052;28;20095;-76
2022/10/13 10:20:49;;;;;;;0.10;0.10;;;14.30;99.90;;;;;;5024777;28;20100;-76
2022/10/13 10:23:28;;;;;;;0.38;0.38;;;14.30;99.90;;;;;;5025908;28;20065;-76
2022/10/13 10:26:00;;;;;;;0.10;0.10;;;14.40;99.90;;;;;;5031821;28;20053;-77
2022/10/13 10:28:51;;;;;;;0.28;0.28;;;14.40;99.90;;;;;;5029128;28;20523;-78
2022/10/13 10:31:17;;;;;;;1.63;1.30;;;14.40;99.90;;;;;;5031301;28;20072;-77
2022/10/13 10:34:21;;;;;;;0.70;0.60;;;14.40;99.90;;;;;;5041339;28;20053;-77
2022/10/13 10:37:13;;;;;;;0.30;0.30;;;14.40;99.90;;;;;;5013746;28;20059;-77
2022/10/13 10:39:58;;;;;;;0.30;0.30;;;14.40;99.90;;;;;;5034413;28;20124;-77
2022/10/13 10:42:55;;;;;;;1.48;0.50;;;14.40;99.90;;;;;;5019387;28;20099;-77
2022/10/13 10:45:38;;;;;;;0.30;0.30;;;14.40;99.90;;;;;;5030661;28;20049;-77
2022/10/13 10:48:24;;;;;;;0.40;0.40;;;14.40;99.90;;;;;;5026419;28;20456;-77
2022/10/13 10:50:53;;;;;;;0.10;0.10;;;14.40;99.90;;;;;;5022395;28;20124;-77
2022/10/13 10:53:38;;;;;;;1.65;1.00;;;14.40;99.90;;;;;;5028870;28;20056;-77
2022/10/13 10:56:32;;;;;;;0.35;0.35;;;14.40;99.90;;;;;;5032277;28;20056;-77
2022/10/13 10:59:03;;;;;;;0.32;0.32;;;14.50;99.90;;;;;;5032008;28;20052;-77
2022/10/13 11:02:06;;;;;;;0.40;0.40;;;14.60;99.90;;;;;;5034374;28;20778;-77
2022/10/13 11:04:48;;;;;;;0.20;0.20;;;14.60;99.90;;;;;;5040416;28;20481;-76
2022/10/13 11:07:23;;;;;;;0.00;0.00;;;14.70;99.90;;;;;;5025621;28;20483;-76
2022/10/13 11:09:51;;;;;;;0.10;0.10;;;14.80;99.90;;;;;;5027424;28;20041;-77
2022/10/13 11:12:20;;;;;;;1.95;0.77;;;14.80;99.90;;;;;;5037119;28;20493;-77
2022/10/13 11:15:10;;;;;;;0.30;0.30;;;14.80;99.90;;;;;;5043086;28;20126;-76
2022/10/13 11:17:37;;;;;;;0.08;0.08;;;14.80;99.90;;;;;;5030675;28;20397;-77
2022/10/13 11:20:20;;;;;;;0.10;0.10;;;14.80;99.90;;;;;;5020635;28;20037;-76
2022/10/13 11:23:18;;;;;;;0.10;0.10;;;14.90;99.90;;;;;;5023704;28;20099;-79
2022/10/13 11:25:47;;;;;;;0.10;0.10;;;14.80;99.90;;;;;;5027201;28;20166;-78
2022/10/13 11:28:22;;;;;;;0.52;0.50;;;14.80;99.90;;;;;;5027191;28;20072;-78
2022/10/13 11:30:56;;;;;;;0.63;0.55;;;14.80;99.90;;;;;;5033227;28;20401;-77
2022/10/13 11:33:38;;;;;;;0.50;0.50;;;14.90;99.90;;;;;;5024835;28;20100;-78
2022/10/13 11:36:58;;;;;;;0.10;0.10;;;14.90;99.90;;;;;;5038774;28;20138;-77
2022/10/13 11:39:25;;;;;;;0.10;0.10;;;15.00;99.90;;;;;;4989467;28;20673;-78
2022/10/13 11:42:10;;;;;;;0.00;0.00;;;15.00;99.90;;;;;;5020679;28;20077;-76
2022/10/13 11:45:01;;;;;;;0.10;0.10;;;15.10;99.90;;;;;;5043447;28;20049;-79
2022/10/13 11:47:53;;;;;;;0.10;0.10;;;15.10;99.90;;;;;;5025944;28;20049;-76
2022/10/13 11:50:40;;;;;;;0.10;0.10;;;15.10;99.90;;;;;;5031266;28;20111;-78
2022/10/13 11:53:23;;;;;;;0.00;0.00;;;15.10;99.90;;;;;;5031939;28;20069;-77
2022/10/13 11:55:52;;;;;;;0.00;0.00;;;15.10;99.90;;;;;;5032862;28;20519;-77
2022/10/13 11:58:19;;;;;;;0.03;0.03;;;15.10;99.90;;;;;;5036633;28;20300;-77
2022/10/13 12:01:05;;;;;;;0.75;0.47;;;15.10;99.90;;;;;;5030984;28;20077;-77
2022/10/13 12:03:32;;;;;;;0.40;0.38;;;15.10;99.90;;;;;;5026635;28;20083;-77
2022/10/13 12:06:25;;;;;;;0.17;0.17;;;15.20;99.90;;;;;;5030703;28;20041;-78
2022/10/13 12:08:51;;;;;;;0.20;0.20;;;15.20;99.90;;;;;;5030898;28;20129;-78
2022/10/13 12:11:35;;;;;;;0.10;0.10;;;15.20;99.90;;;;;;5028838;28;20037;-78
2022/10/13 12:14:20;;;;;;;0.08;0.08;;;15.10;99.90;;;;;;5030961;28;20045;-78
2022/10/13 12:17:23;;;;;;;0.10;0.10;;;15.20;99.90;;;;;;5031502;28;20033;-78
2022/10/13 12:19:49;;;;;;;0.40;0.40;;;15.10;99.90;;;;;;5029528;28;20512;-79
2022/10/13 12:22:14;;;;;;;0.10;0.10;;;15.10;99.90;;;;;;5037726;28;20049;-78
2022/10/13 12:24:40;;;;;;;0.00;0.00;;;15.10;99.90;;;;;;5046062;28;20128;-78
2022/10/13 12:27:11;;;;;;;0.00;0.00;;;15.10;99.90;;;;;;5035726;28;20049;-77
2022/10/13 12:29:40;;;;;;;0.25;0.25;;;15.10;99.90;;;;;;5027284;28;20045;-78
2022/10/13 12:32:25;;;;;;;0.10;0.10;;;15.20;99.90;;;;;;5024822;28;20102;-78
2022/10/13 12:34:51;;;;;;;0.10;0.10;;;15.20;99.90;;;;;;5039551;28;20052;-78
2022/10/13 12:37:43;;;;;;;0.00;0.00;;;15.20;99.90;;;;;;5029567;28;20397;-78
2022/10/13 12:40:13;;;;;;;0.00;0.00;;;15.30;99.90;;;;;;5028114;28;20088;-79
2022/10/13 12:42:38;;;;;;;0.00;0.00;;;15.30;99.90;;;;;;5030911;28;20045;-79
2022/10/13 12:45:05;;;;;;;0.00;0.00;;;15.20;99.90;;;;;;5037353;28;20044;-79
2022/10/13 12:47:43;;;;;;;0.00;0.00;;;15.30;99.90;;;;;;5028195;28;20053;-80
2022/10/13 12:50:26;;;;;;;0.10;0.10;;;15.30;99.90;;;;;;5026813;28;20038;-79
2022/10/13 12:53:17;;;;;;;0.98;0.75;;;15.30;99.90;;;;;;5028568;28;20056;-79
2022/10/13 12:55:57;;;;;;;0.10;0.10;;;15.30;99.90;;;;;;5030216;28;20049;-79
2022/10/13 12:58:34;;;;;;;0.10;0.10;;;15.30;99.90;;;;;;5017763;28;20120;-79
2022/10/13 13:01:11;;;;;;;0.57;0.35;;;15.30;99.90;;;;;;5041573;28;20048;-79
2022/10/13 13:03:38;;;;;;;0.10;0.10;;;15.20;99.90;;;;;;5025446;28;20147;-79
2022/10/13 13:06:28;;;;;;;0.05;0.05;;;15.20;99.90;;;;;;5028761;28;20428;-78
2022/10/13 13:09:07;;;;;;;0.00;0.00;;;15.20;99.90;;;;;;5030129;28;20083;-78